createdAt,value
2023-08-17T00:01:51.064Z,0.50
2023-08-17T00:04:19.739Z,0.47
2023-08-17T00:06:48.266Z,0.60
2023-08-17T00:11:46.213Z,0.60
2023-08-17T00:14:14.481Z,1.17
2023-08-17T00:16:43.993Z,0.95
2023-08-17T00:19:12.739Z,0.55
2023-08-17T00:21:41.334Z,0.65
2023-08-17T00:24:10.309Z,0.38
2023-08-17T00:26:38.488Z,0.50
2023-08-17T00:29:06.955Z,0.50
2023-08-17T00:31:36.286Z,0.57
2023-08-17T00:34:06.452Z,0.60
2023-08-17T00:36:34.817Z,0.60
2023-08-17T00:39:03.636Z,0.50
2023-08-17T00:41:32.529Z,0.60
2023-08-17T00:44:02.101Z,0.45
2023-08-17T00:46:31.892Z,0.43
2023-08-17T00:49:00.569Z,1.10
2023-08-17T00:51:30.717Z,0.70
2023-08-17T00:54:03.388Z,0.73
2023-08-17T00:56:33.349Z,0.60
2023-08-17T00:59:02.391Z,0.82
2023-08-17T01:01:32.553Z,0.90
2023-08-17T01:04:01.405Z,1.00
2023-08-17T01:06:30.995Z,0.88
2023-08-17T01:11:34.626Z,0.90
2023-08-17T01:14:07.466Z,0.80
2023-08-17T01:16:41.651Z,1.10
2023-08-17T01:19:12.106Z,0.90
2023-08-17T01:21:46.368Z,0.88
2023-08-17T01:24:16.581Z,1.10
2023-08-17T01:26:45.482Z,0.85
2023-08-17T01:29:13.996Z,1.15
2023-08-17T01:31:49.704Z,0.90
2023-08-17T01:34:28.893Z,0.90
2023-08-17T01:37:00.880Z,0.80
2023-08-17T01:39:39.674Z,1.13
2023-08-17T01:42:09.810Z,1.20
2023-08-17T01:44:38.912Z,0.85
2023-08-17T01:47:07.482Z,0.93
2023-08-17T01:49:35.854Z,0.75
2023-08-17T01:52:04.309Z,1.10
2023-08-17T01:54:34.381Z,1.10
2023-08-17T01:57:02.802Z,0.70
2023-08-17T01:59:31.164Z,1.00
2023-08-17T02:01:59.507Z,1.13
2023-08-17T02:04:28.113Z,0.73
2023-08-17T02:06:56.390Z,0.75
2023-08-17T02:09:27.663Z,1.40
2023-08-17T02:11:57.261Z,0.80
2023-08-17T02:14:27.055Z,0.88
2023-08-17T02:16:55.449Z,0.90
2023-08-17T02:19:24.322Z,1.48
2023-08-17T02:21:52.686Z,1.33
2023-08-17T02:24:21.647Z,0.70
2023-08-17T02:26:51.206Z,1.40
2023-08-17T02:29:20.894Z,1.85
2023-08-17T02:31:49.224Z,1.30
2023-08-17T02:34:17.622Z,2.13
2023-08-17T02:36:48.998Z,2.17
2023-08-17T02:39:17.853Z,2.83
2023-08-17T02:41:50.680Z,2.80
2023-08-17T02:44:20.558Z,2.38
2023-08-17T02:46:48.745Z,2.72
2023-08-17T02:49:19.505Z,2.70
2023-08-17T02:51:47.752Z,2.28
2023-08-17T02:54:16.634Z,2.78
2023-08-17T02:56:49.080Z,3.00
2023-08-17T02:59:17.531Z,2.58
2023-08-17T03:01:55.900Z,3.30
2023-08-17T03:04:25.369Z,4.05
2023-08-17T03:06:53.683Z,3.67
2023-08-17T03:09:24.262Z,3.15
2023-08-17T03:11:52.591Z,3.80
2023-08-17T03:14:20.895Z,3.15
2023-08-17T03:16:49.873Z,3.47
2023-08-17T03:19:19.617Z,3.13
2023-08-17T03:21:48.831Z,3.05
2023-08-17T03:24:19.183Z,3.50
2023-08-17T03:26:47.983Z,4.40
2023-08-17T03:29:17.311Z,3.67
2023-08-17T03:31:45.855Z,3.80
2023-08-17T03:34:16.775Z,3.58
2023-08-17T03:36:55.264Z,3.45
2023-08-17T03:39:24.421Z,3.88
2023-08-17T03:41:55.504Z,4.10
2023-08-17T03:44:24.320Z,4.63
2023-08-17T03:46:52.729Z,3.72
2023-08-17T03:49:21.679Z,5.22
2023-08-17T03:51:52.891Z,3.67
2023-08-17T03:54:21.553Z,4.28
2023-08-17T03:56:53.490Z,5.23
2023-08-17T03:59:21.956Z,3.65
2023-08-17T04:01:54.511Z,3.97
2023-08-17T04:04:24.773Z,4.10
2023-08-17T04:06:55.002Z,4.00
2023-08-17T04:09:24.732Z,4.20
2023-08-17T04:11:55.423Z,4.35
2023-08-17T04:14:26.552Z,3.78
2023-08-17T04:16:59.107Z,4.30
2023-08-17T04:19:27.693Z,4.72
2023-08-17T04:22:00.805Z,4.30
2023-08-17T04:24:32.482Z,4.57
2023-08-17T04:27:02.076Z,4.25
2023-08-17T04:29:30.333Z,3.78
2023-08-17T04:31:59.470Z,3.92
2023-08-17T04:34:30.839Z,4.93
2023-08-17T04:37:00.688Z,4.32
2023-08-17T04:41:58.221Z,4.00
2023-08-17T04:44:32.732Z,3.50
2023-08-17T04:49:31.464Z,3.83
2023-08-17T04:52:01.470Z,4.45
2023-08-17T04:54:30.234Z,4.18
2023-08-17T04:57:21.955Z,4.07
2023-08-17T04:59:53.645Z,3.83
2023-08-17T05:02:26.076Z,4.30
2023-08-17T05:04:55.291Z,4.38
2023-08-17T05:07:26.507Z,4.03
2023-08-17T05:09:57.209Z,4.15
2023-08-17T05:12:26.734Z,3.95
2023-08-17T05:14:54.962Z,3.97
2023-08-17T05:17:31.166Z,4.22
2023-08-17T05:20:00.214Z,3.63
2023-08-17T05:22:30.431Z,3.10
2023-08-17T05:24:59.621Z,3.05
2023-08-17T05:27:28.408Z,3.80
2023-08-17T05:29:57.013Z,3.40
2023-08-17T05:32:25.914Z,3.17
2023-08-17T05:34:56.229Z,3.00
2023-08-17T05:37:24.835Z,2.87
2023-08-17T05:39:56.144Z,2.60
2023-08-17T05:42:24.551Z,2.45
2023-08-17T05:44:53.215Z,3.13
2023-08-17T05:47:21.570Z,3.47
2023-08-17T05:49:49.818Z,2.00
2023-08-17T05:52:18.363Z,2.65
2023-08-17T05:54:46.794Z,2.67
2023-08-17T05:57:16.669Z,2.47
2023-08-17T05:59:44.861Z,2.65
2023-08-17T06:02:15.909Z,2.70
2023-08-17T06:04:44.255Z,2.63
2023-08-17T06:07:13.523Z,2.53
2023-08-17T06:09:42.207Z,2.38
2023-08-17T06:12:12.773Z,2.57
2023-08-17T06:14:43.763Z,1.80
2023-08-17T06:17:12.058Z,2.50
2023-08-17T06:19:41.220Z,1.77
2023-08-17T06:22:09.862Z,1.67
2023-08-17T06:24:38.202Z,1.70
2023-08-17T06:27:07.940Z,1.33
2023-08-17T06:29:36.575Z,1.42
2023-08-17T06:32:06.971Z,1.75
2023-08-17T06:34:37.771Z,1.25
2023-08-17T06:37:06.728Z,1.48
2023-08-17T06:39:35.262Z,1.08
2023-08-17T06:42:03.849Z,1.08
2023-08-17T06:44:34.661Z,0.82
2023-08-17T06:47:03.145Z,1.50
2023-08-17T06:49:33.229Z,1.50
2023-08-17T06:52:02.546Z,1.70
2023-08-17T06:54:33.256Z,0.90
2023-08-17T06:57:01.737Z,0.98
2023-08-17T06:59:30.417Z,1.20
2023-08-17T07:01:59.346Z,1.43
2023-08-17T07:04:27.823Z,1.45
2023-08-17T07:06:57.601Z,1.58
2023-08-17T07:09:25.953Z,1.33
2023-08-17T07:11:54.480Z,1.35
2023-08-17T07:14:23.196Z,1.45
2023-08-17T07:16:51.706Z,1.58
2023-08-17T07:19:21.899Z,1.10
2023-08-17T07:21:54.475Z,1.40
2023-08-17T07:24:26.489Z,1.40
2023-08-17T07:26:54.973Z,1.13
2023-08-17T07:29:23.625Z,1.20
2023-08-17T07:31:55.654Z,1.25
2023-08-17T07:34:24.082Z,1.38
2023-08-17T07:36:52.302Z,1.10
2023-08-17T07:39:20.731Z,0.90
2023-08-17T07:41:50.437Z,1.13
2023-08-17T07:44:19.095Z,1.15
2023-08-17T07:46:47.951Z,1.00
2023-08-17T07:49:30.707Z,0.85
2023-08-17T07:52:00.941Z,1.52
2023-08-17T07:54:29.698Z,1.07
2023-08-17T07:56:59.522Z,1.38
2023-08-17T07:59:27.889Z,1.25
2023-08-17T08:01:57.094Z,1.02
2023-08-17T08:04:25.572Z,1.05
2023-08-17T08:06:54.032Z,1.90
2023-08-17T08:09:22.530Z,1.50
2023-08-17T08:11:52.132Z,1.40
2023-08-17T08:14:22.750Z,1.25
2023-08-17T08:16:52.000Z,1.13
2023-08-17T08:19:20.365Z,1.05
2023-08-17T08:21:48.664Z,1.13
2023-08-17T08:24:22.526Z,1.40
2023-08-17T08:26:59.373Z,1.13
2023-08-17T08:29:29.422Z,1.30
2023-08-17T08:31:58.541Z,1.30
2023-08-17T08:34:28.984Z,1.88
2023-08-17T08:36:57.285Z,1.58
2023-08-17T08:39:28.332Z,1.23
2023-08-17T08:41:58.472Z,1.30
2023-08-17T08:44:27.049Z,1.10
2023-08-17T08:46:59.302Z,1.50
2023-08-17T08:49:31.926Z,0.98
2023-08-17T08:52:02.111Z,1.30
2023-08-17T08:54:38.023Z,0.93
2023-08-17T08:57:10.934Z,1.17
2023-08-17T08:59:45.217Z,1.13
2023-08-17T09:02:17.444Z,1.40
2023-08-17T09:04:47.028Z,1.02
2023-08-17T09:07:15.675Z,0.93
2023-08-17T09:09:44.199Z,0.98
2023-08-17T09:12:12.870Z,1.65
2023-08-17T09:17:12.088Z,1.08
2023-08-17T09:19:42.568Z,1.10
2023-08-17T09:22:11.015Z,1.30
2023-08-17T09:24:39.601Z,1.10
2023-08-17T09:27:14.072Z,1.58
2023-08-17T09:29:47.118Z,1.35
2023-08-17T09:32:18.029Z,1.63
2023-08-17T09:34:49.224Z,1.20
2023-08-17T09:37:17.895Z,1.60
2023-08-17T09:39:46.123Z,1.17
2023-08-17T09:42:19.247Z,1.20
2023-08-17T09:44:48.311Z,1.27
2023-08-17T09:47:16.668Z,1.05
2023-08-17T09:49:44.951Z,1.67
2023-08-17T09:52:15.895Z,1.53
2023-08-17T09:54:45.771Z,1.17
2023-08-17T09:57:14.992Z,1.30
2023-08-17T10:02:20.765Z,1.30
2023-08-17T10:04:53.827Z,1.17
2023-08-17T10:07:33.214Z,1.42
2023-08-17T10:10:05.916Z,1.30
2023-08-17T10:12:47.557Z,1.35
2023-08-17T10:15:21.633Z,1.75
2023-08-17T10:17:57.733Z,1.48
2023-08-17T10:20:29.124Z,1.45
2023-08-17T10:23:09.269Z,1.38
2023-08-17T10:25:38.595Z,1.27
2023-08-17T10:28:09.366Z,1.15
2023-08-17T10:30:38.711Z,1.77
2023-08-17T10:33:08.084Z,1.17
2023-08-17T10:35:38.674Z,1.02
2023-08-17T10:38:11.183Z,1.17
2023-08-17T10:40:47.273Z,0.98
2023-08-17T10:43:15.741Z,1.27
2023-08-17T10:45:48.562Z,1.45
2023-08-17T10:48:37.111Z,1.52
2023-08-17T10:51:07.309Z,1.50
2023-08-17T10:53:48.159Z,1.00
2023-08-17T10:56:19.194Z,1.40
2023-08-17T10:58:53.356Z,1.40
2023-08-17T11:01:34.124Z,1.25
2023-08-17T11:04:15.153Z,1.38
2023-08-17T11:06:45.033Z,1.23
2023-08-17T11:09:19.954Z,1.63
2023-08-17T11:12:03.490Z,1.13
2023-08-17T11:14:46.988Z,1.13
2023-08-17T11:17:15.250Z,1.08
2023-08-17T11:19:43.507Z,1.20
2023-08-17T11:22:11.960Z,1.30
2023-08-17T11:24:43.690Z,1.20
2023-08-17T11:27:14.977Z,1.20
2023-08-17T11:29:45.100Z,1.58
2023-08-17T11:32:18.000Z,1.05
2023-08-17T11:34:47.427Z,1.63
2023-08-17T11:37:16.002Z,1.27
2023-08-17T11:39:45.639Z,2.47
2023-08-17T11:42:20.100Z,1.92
2023-08-17T11:44:56.957Z,1.50
2023-08-17T11:47:25.624Z,1.52
2023-08-17T11:50:10.745Z,1.20
2023-08-17T11:52:50.922Z,1.75
2023-08-17T11:55:23.724Z,1.48
2023-08-17T11:57:55.865Z,1.40
2023-08-17T12:00:29.631Z,1.75
2023-08-17T12:02:57.913Z,1.42
2023-08-17T12:05:28.737Z,1.63
2023-08-17T12:08:01.051Z,1.38
2023-08-17T12:10:33.938Z,1.33
2023-08-17T12:13:02.307Z,1.17
2023-08-17T12:15:33.391Z,1.20
2023-08-17T12:18:04.212Z,1.17
2023-08-17T12:20:37.869Z,1.02
2023-08-17T12:23:06.585Z,1.10
2023-08-17T12:25:36.306Z,1.50
2023-08-17T12:28:04.993Z,0.90
2023-08-17T12:30:37.429Z,1.00
2023-08-17T12:33:06.528Z,1.10
2023-08-17T12:38:03.444Z,0.97
2023-08-17T12:40:31.764Z,0.85
2023-08-17T12:43:01.357Z,1.10
2023-08-17T12:45:31.227Z,0.82
2023-08-17T12:47:59.504Z,1.20
2023-08-17T12:50:28.084Z,1.10
2023-08-17T12:52:57.742Z,1.13
2023-08-17T12:55:26.088Z,1.42
2023-08-17T12:58:01.526Z,1.13
2023-08-17T13:00:31.997Z,0.77
2023-08-17T13:03:00.651Z,1.30
2023-08-17T13:05:29.071Z,1.20
2023-08-17T13:07:57.482Z,1.10
2023-08-17T13:10:25.810Z,1.07
2023-08-17T13:12:56.159Z,0.97
2023-08-17T13:15:25.904Z,1.30
2023-08-17T13:17:55.808Z,1.15
2023-08-17T13:20:24.691Z,1.10
2023-08-17T13:22:53.018Z,1.00
2023-08-17T13:25:21.691Z,0.90
2023-08-17T13:27:50.139Z,1.30
2023-08-17T13:30:18.705Z,1.25
2023-08-17T13:32:47.234Z,1.05
2023-08-17T13:35:17.258Z,2.05
2023-08-17T13:37:45.496Z,1.40
2023-08-17T13:40:14.226Z,1.25
2023-08-17T13:42:43.542Z,1.83
2023-08-17T13:45:12.126Z,1.60
2023-08-17T13:47:40.684Z,1.60
2023-08-17T13:50:10.709Z,1.50
2023-08-17T13:52:40.353Z,1.30
2023-08-17T13:55:09.884Z,1.42
2023-08-17T13:57:40.787Z,1.48
2023-08-17T14:00:11.984Z,1.27
2023-08-17T14:02:41.117Z,1.30
2023-08-17T14:05:11.151Z,1.30
2023-08-17T14:07:40.839Z,1.33
2023-08-17T14:10:28.949Z,1.30
2023-08-17T14:13:00.884Z,2.40
2023-08-17T14:15:29.796Z,1.67
2023-08-17T14:17:58.411Z,1.63
2023-08-17T14:20:27.080Z,1.30
2023-08-17T14:22:57.894Z,1.20
2023-08-17T14:25:27.036Z,1.40
2023-08-17T14:27:55.215Z,1.23
2023-08-17T14:30:25.550Z,1.50
2023-08-17T14:32:54.076Z,1.55
2023-08-17T14:35:22.321Z,1.45
2023-08-17T14:37:50.500Z,1.23
2023-08-17T14:40:21.485Z,1.08
2023-08-17T14:42:54.248Z,1.48
2023-08-17T14:45:23.138Z,1.27
2023-08-17T14:47:51.798Z,1.20
2023-08-17T14:50:20.280Z,1.70
2023-08-17T14:52:52.013Z,1.48
2023-08-17T14:55:22.209Z,1.50
2023-08-17T14:57:50.751Z,1.30
2023-08-17T15:00:19.439Z,1.20
2023-08-17T15:02:47.821Z,1.08
2023-08-17T15:05:16.567Z,1.38
2023-08-17T15:07:47.646Z,1.30
2023-08-17T15:10:18.665Z,1.90
2023-08-17T15:12:48.193Z,1.60
2023-08-17T15:15:20.680Z,1.40
2023-08-17T15:17:49.502Z,1.25
2023-08-17T15:20:18.557Z,1.33
2023-08-17T15:22:48.178Z,0.93
2023-08-17T15:25:16.727Z,1.50
2023-08-17T15:27:45.042Z,1.50
2023-08-17T15:30:16.435Z,1.40
2023-08-17T15:32:44.669Z,1.15
2023-08-17T15:35:15.158Z,1.30
2023-08-17T15:37:43.563Z,1.38
2023-08-17T15:40:12.654Z,1.17
2023-08-17T15:42:42.633Z,1.20
2023-08-17T15:45:21.388Z,1.40
2023-08-17T15:48:00.535Z,1.25
2023-08-17T15:50:29.076Z,1.02
2023-08-17T15:53:02.715Z,1.20
2023-08-17T15:55:38.557Z,1.63
2023-08-17T15:58:13.508Z,1.20
2023-08-17T16:00:46.860Z,1.10
2023-08-17T16:03:22.767Z,1.52
2023-08-17T16:05:51.101Z,1.30
2023-08-17T16:08:22.560Z,1.10
2023-08-17T16:10:53.122Z,1.30
2023-08-17T16:13:21.861Z,1.23
2023-08-17T16:15:54.279Z,1.08
2023-08-17T16:18:26.479Z,0.98
2023-08-17T16:20:54.742Z,1.13
2023-08-17T16:23:25.894Z,1.85
2023-08-17T16:25:57.462Z,1.88
2023-08-17T16:28:27.231Z,1.42
2023-08-17T16:30:56.466Z,1.77
2023-08-17T16:35:54.353Z,0.85
2023-08-17T16:38:22.653Z,1.10
2023-08-17T16:40:51.459Z,1.53
2023-08-17T16:43:26.744Z,2.10
2023-08-17T16:45:55.066Z,1.83
2023-08-17T16:48:24.988Z,1.08
2023-08-17T16:50:56.090Z,1.10
2023-08-17T16:53:24.556Z,0.90
2023-08-17T16:55:56.756Z,2.10
2023-08-17T16:58:26.671Z,1.00
2023-08-17T17:01:03.526Z,1.02
2023-08-17T17:03:36.653Z,1.20
2023-08-17T17:06:09.814Z,1.02
2023-08-17T17:08:38.606Z,2.58
2023-08-17T17:11:08.150Z,1.30
2023-08-17T17:13:38.717Z,1.13
2023-08-17T17:16:07.620Z,1.35
2023-08-17T17:18:39.176Z,1.50
2023-08-17T17:21:15.544Z,1.25
2023-08-17T17:23:46.462Z,1.20
2023-08-17T17:26:14.847Z,1.45
2023-08-17T17:28:46.251Z,1.20
2023-08-17T17:31:17.149Z,1.30
2023-08-17T17:33:45.650Z,1.60
2023-08-17T17:36:15.330Z,0.95
2023-08-17T17:38:46.600Z,1.00
2023-08-17T17:41:15.577Z,1.02
2023-08-17T17:43:47.326Z,1.17
2023-08-17T17:46:16.021Z,1.33
2023-08-17T17:48:45.731Z,1.63
2023-08-17T17:51:15.497Z,1.45
2023-08-17T17:53:46.227Z,1.20
2023-08-17T17:56:14.754Z,1.13
2023-08-17T17:58:43.242Z,0.97
2023-08-17T18:01:11.996Z,1.25
2023-08-17T18:04:01.695Z,1.10
2023-08-17T18:06:31.498Z,1.27
2023-08-17T18:09:00.315Z,1.00
2023-08-17T18:11:31.374Z,1.20
2023-08-17T18:14:00.061Z,1.20
2023-08-17T18:16:28.647Z,0.85
2023-08-17T18:18:56.959Z,0.93
2023-08-17T18:21:25.817Z,1.10
2023-08-17T18:23:57.103Z,1.30
2023-08-17T18:26:29.446Z,1.30
2023-08-17T18:29:05.684Z,1.27
2023-08-17T18:31:44.169Z,1.35
2023-08-17T18:34:12.515Z,1.00
2023-08-17T18:36:45.931Z,1.00
2023-08-17T18:39:15.979Z,1.02
2023-08-17T18:41:46.171Z,1.08
2023-08-17T18:44:19.309Z,1.27
2023-08-17T18:46:49.166Z,1.17
2023-08-17T18:49:23.226Z,0.88
2023-08-17T18:51:52.558Z,0.98
2023-08-17T18:54:22.730Z,1.25
2023-08-17T18:56:53.181Z,1.00
2023-08-17T18:59:21.456Z,0.98
2023-08-17T19:01:51.122Z,1.13
2023-08-17T19:04:24.627Z,0.98
2023-08-17T19:06:57.493Z,1.45
2023-08-17T19:09:32.422Z,1.10
2023-08-17T19:12:02.779Z,1.00
2023-08-17T19:14:34.694Z,1.10
2023-08-17T19:17:04.995Z,1.00
2023-08-17T19:19:35.847Z,1.67
2023-08-17T19:22:04.145Z,1.00
2023-08-17T19:24:33.690Z,1.10
2023-08-17T19:27:04.534Z,1.10
2023-08-17T19:29:36.689Z,0.90
2023-08-17T19:32:08.364Z,1.80
2023-08-17T19:34:39.707Z,0.70
2023-08-17T19:37:08.139Z,0.82
2023-08-17T19:39:49.517Z,1.10
2023-08-17T19:42:21.480Z,1.20
2023-08-17T19:44:53.128Z,0.90
2023-08-17T19:47:27.112Z,1.00
2023-08-17T19:49:58.707Z,1.00
2023-08-17T19:52:30.289Z,1.58
2023-08-17T19:54:59.918Z,1.30
2023-08-17T19:57:30.997Z,0.85
2023-08-17T19:59:59.214Z,1.20
2023-08-17T20:02:30.176Z,1.20
2023-08-17T20:05:00.949Z,1.08
2023-08-17T20:07:34.977Z,0.80
2023-08-17T20:10:10.069Z,0.95
2023-08-17T20:12:39.814Z,1.30
2023-08-17T20:15:11.296Z,1.30
2023-08-17T20:17:42.673Z,1.13
2023-08-17T20:20:17.025Z,0.90
2023-08-17T20:22:45.938Z,0.93
2023-08-17T20:25:16.453Z,1.00
2023-08-17T20:27:46.462Z,0.98
2023-08-17T20:30:15.457Z,1.50
2023-08-17T20:32:44.270Z,1.00
2023-08-17T20:35:13.726Z,1.20
2023-08-17T20:37:42.655Z,1.02
2023-08-17T20:40:11.891Z,1.10
2023-08-17T20:42:41.501Z,0.95
2023-08-17T20:45:10.783Z,0.90
2023-08-17T20:50:08.795Z,0.70
2023-08-17T20:55:07.865Z,0.85
2023-08-17T20:57:36.299Z,1.30
2023-08-17T21:00:10.230Z,1.17
2023-08-17T21:02:42.379Z,1.30
2023-08-17T21:05:10.978Z,0.90
2023-08-17T21:07:40.943Z,1.70
2023-08-17T21:10:10.941Z,1.05
2023-08-17T21:12:43.401Z,1.20
2023-08-17T21:15:15.494Z,0.95
2023-08-17T21:17:44.274Z,0.80
2023-08-17T21:20:13.426Z,1.13
2023-08-17T21:22:50.669Z,1.60
2023-08-17T21:25:22.488Z,1.48
2023-08-17T21:27:52.465Z,1.40
2023-08-17T21:30:22.386Z,1.27
2023-08-17T21:32:50.673Z,1.45
2023-08-17T21:35:19.064Z,1.05
2023-08-17T21:37:47.697Z,1.00
2023-08-17T21:40:16.286Z,1.38
2023-08-17T21:42:46.879Z,1.92
2023-08-17T21:47:45.843Z,1.35
2023-08-17T21:50:14.011Z,0.95
2023-08-17T21:52:42.519Z,0.98
2023-08-17T21:55:23.984Z,1.08
2023-08-17T21:57:52.150Z,1.00
2023-08-17T22:00:22.766Z,1.10
2023-08-17T22:02:52.422Z,1.30
2023-08-17T22:05:20.808Z,1.20
2023-08-17T22:07:51.706Z,1.30
2023-08-17T22:10:23.883Z,0.95
2023-08-17T22:12:52.314Z,1.17
2023-08-17T22:15:20.748Z,1.33
2023-08-17T22:17:49.083Z,1.10
2023-08-17T22:20:19.009Z,1.38
2023-08-17T22:22:49.084Z,1.25
2023-08-17T22:25:17.615Z,1.10
2023-08-17T22:27:46.270Z,1.20
2023-08-17T22:30:16.545Z,1.00
2023-08-17T22:32:44.779Z,1.40
2023-08-17T22:35:13.231Z,1.33
2023-08-17T22:37:42.990Z,1.13
2023-08-17T22:40:12.858Z,0.93
2023-08-17T22:42:41.476Z,1.30
2023-08-17T22:45:10.985Z,1.30
2023-08-17T22:47:39.290Z,1.55
2023-08-17T22:50:09.107Z,1.60
2023-08-17T22:52:37.775Z,1.65
2023-08-17T22:55:08.257Z,1.45
2023-08-17T22:57:36.799Z,1.33
2023-08-17T23:00:07.092Z,1.35
2023-08-17T23:02:36.478Z,1.20
2023-08-17T23:05:05.071Z,1.17
2023-08-17T23:07:36.052Z,1.20
2023-08-17T23:10:05.026Z,1.30
2023-08-17T23:12:35.959Z,1.17
2023-08-17T23:15:05.669Z,1.25
2023-08-17T23:17:36.277Z,1.23
2023-08-17T23:20:07.484Z,1.30
2023-08-17T23:22:36.529Z,1.20
2023-08-17T23:25:05.375Z,0.95
2023-08-17T23:27:35.347Z,1.33
2023-08-17T23:30:04.540Z,1.67
2023-08-17T23:32:32.897Z,1.35
2023-08-17T23:37:33.317Z,1.30
2023-08-17T23:40:03.323Z,1.58
2023-08-17T23:42:31.777Z,1.70
2023-08-17T23:45:02.032Z,1.67
2023-08-17T23:47:30.472Z,1.13
2023-08-17T23:49:59.652Z,1.58
2023-08-17T23:52:28.149Z,1.53
2023-08-17T23:54:58.475Z,1.40
2023-08-17T23:57:27.561Z,1.63
2023-08-17T23:59:57.269Z,1.60
